Wednesday, October 1, 2014, 6:11 AM EDT

KRDG, Reading Regional Airport

Location: Reading, PA, United States Lat: 40.367
Local Time: 6:11 AM EDT (10:11 GMT) Lon: -75.967
Time Zone: US/Eastern Elev: 344 ft

Show me the last for .
Show Decoded

2014-10-01 05:54 METAR KRDG 010954Z 03003KT 4SM BR FEW015 SCT090 16/15 A2998 RMK AO2 SLP156
                 T01610150 =
2014-10-01 05:18 METAR KRDG 010918Z 00000KT 6SM BR FEW014 SCT028 OVC120 17/15 A2997 RMK AO2
                 T01670150 =
2014-10-01 04:54 METAR KRDG 010854Z 28004KT 10SM BKN027 OVC110 17/15 A2998 RMK AO2 RAE43 SLP154
                 P0000 60002 T01670150 55008 =
2014-10-01 03:54 METAR KRDG 010754Z 04003KT 10SM -RA OVC095 17/15 A2996 RMK AO2 RAB04 SLP150
                 P0002 T01720150 =
2014-10-01 02:54 METAR KRDG 010654Z 00000KT 10SM SCT048 OVC110 18/14 A2999 RMK AO2 RAB32E53
                 SLP157 P0000 T01780144 =
2014-10-01 02:09 METAR KRDG 010609Z 22003KT 10SM FEW025 SCT030 OVC048 18/14 A3000 RMK AO2
                 T01780144 =
2014-10-01 01:54 METAR KRDG 010554Z 00000KT 10SM BKN024 BKN031 OVC049 18/14 A3000 RMK AO2 SLP162
                 T01780144 10217 20178 53012 =
2014-10-01 00:54 METAR KRDG 010454Z 00000KT 10SM SCT043 BKN050 BKN100 18/14 A2998 RMK AO2 SLP157
                 T01830139 402610156 =
2014-09-30 23:54 METAR KRDG 010354Z 09003KT 10SM BKN050 OVC095 18/14 A2997 RMK AO2 LTG DSNT SW
                 SLP153 T01830139 =
2014-09-30 22:54 METAR KRDG 010254Z 11003KT 10SM BKN050 BKN060 19/14 A2997 RMK AO2 LTG DSNT W
                 SLP150 T01890139 51017 =
2014-09-30 21:54 METAR KRDG 010154Z 12005KT 10SM SCT070 OVC100 19/14 A2996 =
2014-09-30 20:54 METAR KRDG 010054Z 13007KT 10SM FEW060 OVC085 21/14 A2993 RMK AO2 SLP138
                 T02060144 =
2014-09-30 19:54 METAR KRDG 302354Z VRB05KT 10SM OVC055 22/13 A2991 RMK AO2 SLP133 T02170128
                 10261 20217 53017 =
2014-09-30 18:54 METAR KRDG 302254Z 12006KT 10SM BKN060 23/12 A2989 RMK AO2 SLP123 T02280122 =
2014-09-30 17:54 METAR KRDG 302154Z AUTO 14005KT 10SM BKN060 24/13 A2987 =
2014-09-30 16:54 METAR KRDG 302054Z AUTO 13004KT 10SM FEW049 24/13 A2986 RMK AO2 SLP115 T02440128
                 56012 =
2014-09-30 15:54 METAR KRDG 301954Z AUTO 12003KT 10SM BKN047 BKN055 25/13 A2987 RMK AO2 SLP118
                 T02500133 =
2014-09-30 14:54 METAR KRDG 301854Z AUTO 13005KT 10SM SCT044 BKN055 BKN080 26/13 A2988 RMK AO2
                 SLP121 T02560133 =
2014-09-30 13:54 METAR KRDG 301754Z 17005KT 10SM SCT047 26/13 A2990 RMK AO2 SLP126 T02560133
                 10256 20167 58012 =
2014-09-30 12:54 METAR KRDG 301654Z 13007KT 10SM BKN047 24/13 A2991 RMK AO2 SLP132 T02390133 =
2014-09-30 11:54 METAR KRDG 301554Z 00000KT 10SM FEW047 OVC120 23/14 A2993 RMK AO2 SLP137
                 T02280139 =
2014-09-30 10:54 METAR KRDG 301454Z 00000KT 10SM BKN120 21/15 A2993 =
2014-09-30 10:18 METAR KRDG 301418Z 17003KT 5SM HZ SCT008 OVC120 20/15 A2994 RMK AO2 T02000150 =
2014-09-30 10:00 METAR KRDG 301400Z 19004KT 4SM HZ BKN008 OVC120 19/16 A2994 RMK AO2 T01940156 =
2014-09-30 09:54 METAR KRDG 301354Z 17003KT 2SM SCT008 OVC120 19/16 A2995 RMK AO2 SFC VIS 9
                 SLP144 T01940156 =
2014-09-30 08:54 METAR KRDG 301254Z 00000KT 2SM BR OVC006 18/16 A2994 RMK AO2 SFC VIS 4 SLP143
                 T01830161 =
2014-09-30 08:18 METAR KRDG 301218Z 00000KT 2SM BR BKN004 OVC009 17/16 A2994 RMK AO2 SFC VIS 2
                 1/2 T01720156 =
2014-09-30 08:09 METAR KRDG 301209Z 00000KT 2SM BR SCT004 OVC009 17/16 A2994 RMK AO2 SFC VIS 3
                 T01720156 =
2014-09-30 07:54 METAR KRDG 301154Z 00000KT 2SM R36/5500VP6000FT BR BKN003 OVC009 17/16 A2994 RMK
                 AO2 SLP140 T01670156 10183 20156 53007 =
2014-09-30 07:52 METAR KRDG 301152Z 00000KT 2SM R36/5000VP6000FT BR BKN003 OVC009 17/16 A2994 RMK
                 AO2 =
2014-09-30 07:46 METAR KRDG 301146Z 00000KT 1 1/2SM R36/4500VP6000FT BR BKN002 OVC011 17/15 A2994
                 RMK AO2 TWR VIS 2 T01670150 =
2014-09-30 07:36 METAR KRDG 301136Z 00000KT 3/4SM R36/3500V4500FT BR BKN002 OVC011 16/15 A2993
                 RMK AO2 TWR VIS 2 T01610150 =
2014-09-30 07:19 METAR KRDG 301119Z 18003KT 1 1/2SM R36/4500VP6000FT BR FEW002 OVC011 16/15 A2993
                 RMK AO2 TWR VIS 2 T01610150 =
2014-09-30 06:54 METAR KRDG 301054Z 00000KT 2SM BR OVC011 16/14 A2992 RMK AO2 SFC VIS 3 SLP136
                 T01610144 =
2014-09-30 06:52 METAR KRDG 301052Z 00000KT 2SM BR OVC011 16/14 A2992 RMK AO2 SFC VIS 2 1/2 =

Support USWX by starting your Amazon purchase here.